Time;durP1;ratioP1;P1;durP2;ratioP2;P2;SDS_P1;SDS_P2;PMS_P1;PMS_P2;Temp;Humidity;BMP_temperature;BMP_pressure;BME280_temperature;BME280_humidity;BME280_pressure;Samples;Min_cycle;Max_cycle;Signal;HPM_P1;HPM_P2
2023/12/13 00:00:50;;;;;;;305.02;286.35;;;7.70;99.90;;;;;;12566269;28;20052;-36
2023/12/13 00:06:52;;;;;;;292.50;274.40;;;7.70;99.90;;;;;;12554778;28;20082;-36
2023/12/13 00:12:54;;;;;;;296.73;278.08;;;7.70;99.90;;;;;;12554491;28;20489;-36
2023/12/13 00:18:56;;;;;;;291.38;273.15;;;7.60;99.90;;;;;;12583614;28;20040;-35
2023/12/13 00:24:58;;;;;;;286.17;268.10;;;7.60;99.90;;;;;;12610236;28;20055;-35
2023/12/13 00:30:59;;;;;;;286.73;268.48;;;7.60;99.90;;;;;;12593836;28;20060;-35
2023/12/13 00:37:01;;;;;;;290.55;271.95;;;7.60;99.90;;;;;;12591701;28;20123;-36
2023/12/13 00:43:05;;;;;;;295.08;276.30;;;7.60;99.90;;;;;;12601790;28;20052;-35
2023/12/13 00:49:08;;;;;;;299.73;280.67;;;7.50;99.90;;;;;;12614025;28;20069;-34
2023/12/13 00:55:10;;;;;;;293.90;275.05;;;7.40;99.90;;;;;;12628599;28;20080;-35
2023/12/13 01:01:12;;;;;;;279.85;262.08;;;7.50;99.90;;;;;;12615947;28;20474;-35
2023/12/13 01:07:14;;;;;;;279.52;261.85;;;7.60;99.90;;;;;;12600531;28;20048;-36
2023/12/13 01:13:16;;;;;;;272.15;254.63;;;7.60;99.90;;;;;;12608080;28;20056;-35
2023/12/13 01:19:18;;;;;;;230.98;216.02;;;7.70;99.90;;;;;;12612756;28;20039;-35
2023/12/13 01:25:20;;;;;;;273.42;256.00;;;7.90;99.90;;;;;;12619418;28;20048;-35
2023/12/13 01:31:22;;;;;;;284.48;266.48;;;7.80;99.90;;;;;;12595602;28;20049;-35
2023/12/13 01:37:23;;;;;;;300.67;281.92;;;7.80;99.90;;;;;;12616974;28;20040;-35
2023/12/13 01:43:25;;;;;;;320.55;300.73;;;7.70;99.90;;;;;;12608374;28;20048;-36
2023/12/13 01:49:28;;;;;;;330.70;310.35;;;7.70;99.90;;;;;;12585441;28;20044;-35
2023/12/13 01:55:30;;;;;;;338.02;317.20;;;7.60;99.90;;;;;;12604671;28;20045;-35
2023/12/13 02:01:32;;;;;;;323.50;303.83;;;7.60;99.90;;;;;;12605051;28;20040;-36
2023/12/13 02:07:36;;;;;;;310.63;291.73;;;7.60;99.90;;;;;;12601802;28;20052;-35
2023/12/13 02:13:39;;;;;;;390.73;366.75;;;7.50;99.90;;;;;;12609224;28;20127;-35
2023/12/13 02:19:41;;;;;;;370.88;347.90;;;7.50;99.90;;;;;;12590335;28;20036;-35
2023/12/13 02:25:49;;;;;;;295.90;277.88;;;7.40;99.90;;;;;;12618283;28;20051;-35
2023/12/13 02:31:51;;;;;;;284.73;267.13;;;7.20;99.90;;;;;;12601706;28;20047;-35
2023/12/13 02:37:54;;;;;;;287.88;270.15;;;7.20;99.90;;;;;;12604765;28;20056;-35
2023/12/13 02:43:55;;;;;;;289.73;271.92;;;7.20;99.90;;;;;;12614278;28;20045;-35
2023/12/13 02:49:58;;;;;;;306.38;287.75;;;7.20;99.90;;;;;;12610860;28;20059;-35
2023/12/13 02:56:00;;;;;;;290.42;272.80;;;7.20;99.90;;;;;;12592095;28;20406;-35
2023/12/13 03:02:02;;;;;;;288.75;271.02;;;7.20;99.90;;;;;;12621471;28;20052;-36
2023/12/13 03:08:04;;;;;;;290.27;272.52;;;7.20;99.90;;;;;;12625307;28;20051;-35
2023/12/13 03:14:06;;;;;;;299.27;280.70;;;7.20;99.90;;;;;;12618923;28;20053;-35
2023/12/13 03:20:09;;;;;;;296.48;278.42;;;7.20;99.90;;;;;;12609848;28;20044;-35
2023/12/13 03:26:11;;;;;;;284.70;267.43;;;7.20;99.90;;;;;;12630780;28;20509;-35
2023/12/13 03:32:13;;;;;;;282.40;265.08;;;7.20;99.90;;;;;;12621280;28;20051;-36
2023/12/13 03:38:15;;;;;;;284.23;266.67;;;7.20;99.90;;;;;;12627901;28;20049;-36
2023/12/13 03:44:17;;;;;;;295.75;277.70;;;7.20;99.90;;;;;;12628786;28;20081;-35
2023/12/13 03:50:20;;;;;;;290.42;272.55;;;7.20;99.90;;;;;;12605210;28;20088;-36
2023/12/13 03:56:22;;;;;;;291.38;273.30;;;7.30;99.90;;;;;;12609672;28;20036;-35
2023/12/13 04:02:25;;;;;;;294.08;275.73;;;7.30;99.90;;;;;;12612729;28;20063;-36
2023/12/13 04:08:27;;;;;;;291.80;273.23;;;7.40;99.90;;;;;;12610240;28;20041;-35
2023/12/13 04:14:30;;;;;;;283.23;265.45;;;7.30;99.90;;;;;;12597535;28;20591;-35
2023/12/13 04:20:32;;;;;;;293.27;275.08;;;7.40;99.90;;;;;;12613687;28;20037;-36
2023/12/13 04:26:34;;;;;;;286.05;268.15;;;7.30;99.90;;;;;;12624800;28;20055;-35
2023/12/13 04:32:40;;;;;;;280.20;262.55;;;7.30;99.90;;;;;;12599085;28;20048;-36
2023/12/13 04:38:42;;;;;;;270.23;253.13;;;7.30;99.90;;;;;;12592436;28;20067;-36
2023/12/13 04:44:44;;;;;;;270.48;253.23;;;7.30;99.90;;;;;;12638107;28;20097;-35
2023/12/13 04:50:46;;;;;;;271.65;254.35;;;7.30;99.90;;;;;;12609707;28;20055;-36
2023/12/13 04:56:48;;;;;;;261.92;245.38;;;7.40;99.90;;;;;;12605923;28;20087;-36
2023/12/13 05:02:50;;;;;;;254.80;238.20;;;7.30;99.90;;;;;;12611777;28;20060;-35
2023/12/13 05:08:52;;;;;;;250.70;234.57;;;7.20;99.90;;;;;;12586358;28;20070;-35
2023/12/13 05:14:54;;;;;;;257.30;240.45;;;7.30;99.90;;;;;;12607659;28;20044;-36
2023/12/13 05:20:56;;;;;;;262.95;246.15;;;7.30;99.90;;;;;;12593575;28;20049;-35
2023/12/13 05:26:58;;;;;;;250.43;234.50;;;7.30;99.90;;;;;;12605779;28;20053;-35
2023/12/13 05:32:59;;;;;;;248.57;232.23;;;7.30;99.90;;;;;;12603738;28;20079;-36
2023/12/13 05:39:02;;;;;;;233.95;218.77;;;7.30;99.90;;;;;;12596418;28;20123;-36
2023/12/13 05:45:05;;;;;;;219.45;204.55;;;7.30;99.90;;;;;;12604855;28;21750;-35
2023/12/13 05:51:07;;;;;;;226.15;210.52;;;7.30;99.90;;;;;;12612664;28;20048;-35
2023/12/13 05:57:08;;;;;;;231.90;216.25;;;7.30;99.90;;;;;;12603301;28;20100;-35
2023/12/13 06:03:10;;;;;;;229.18;213.48;;;7.20;99.90;;;;;;12614320;28;20087;-35
2023/12/13 06:09:12;;;;;;;228.48;213.35;;;7.20;99.90;;;;;;12612055;28;20080;-35
2023/12/13 06:15:16;;;;;;;215.68;200.68;;;7.20;99.90;;;;;;12603803;28;20059;-35
2023/12/13 06:21:17;;;;;;;213.85;198.93;;;7.10;99.90;;;;;;12609313;28;20044;-35
2023/12/13 06:27:19;;;;;;;205.95;191.18;;;7.20;99.90;;;;;;12608732;28;20048;-35
2023/12/13 06:33:21;;;;;;;215.65;200.45;;;7.20;99.90;;;;;;12594731;28;20450;-36
2023/12/13 06:39:23;;;;;;;225.30;209.48;;;7.10;99.90;;;;;;12613472;28;20045;-35
2023/12/13 06:45:25;;;;;;;235.15;219.10;;;7.20;99.90;;;;;;12611566;28;20514;-36
2023/12/13 06:51:27;;;;;;;232.60;216.65;;;7.20;99.90;;;;;;12606781;28;20048;-36
2023/12/13 06:57:29;;;;;;;228.55;212.75;;;7.20;99.90;;;;;;12642719;28;20718;-35
2023/12/13 07:03:31;;;;;;;222.82;207.27;;;7.10;99.90;;;;;;12626445;28;20047;-36
2023/12/13 07:09:33;;;;;;;223.73;208.20;;;7.10;99.90;;;;;;12616881;28;20051;-35
2023/12/13 07:15:35;;;;;;;229.35;213.68;;;7.10;99.90;;;;;;12612536;28;20063;-36
2023/12/13 07:21:37;;;;;;;228.10;212.80;;;7.10;99.90;;;;;;12606573;28;20059;-36
2023/12/13 07:27:39;;;;;;;236.20;220.60;;;7.10;99.90;;;;;;12605057;28;20048;-36
2023/12/13 07:33:41;;;;;;;232.75;216.93;;;7.20;99.90;;;;;;12619984;28;20048;-36
2023/12/13 07:39:44;;;;;;;236.27;219.85;;;7.20;99.90;;;;;;12633173;28;20095;-35
2023/12/13 07:45:51;;;;;;;260.02;243.68;;;7.20;99.90;;;;;;12605302;28;20466;-35
2023/12/13 07:51:54;;;;;;;256.23;240.10;;;7.20;99.90;;;;;;12611652;28;20127;-35
2023/12/13 07:57:56;;;;;;;257.88;241.23;;;7.20;99.90;;;;;;12620470;28;20197;-35
2023/12/13 08:03:58;;;;;;;274.13;257.15;;;7.20;99.90;;;;;;12603617;28;20052;-35
2023/12/13 08:10:00;;;;;;;269.88;253.13;;;7.20;99.90;;;;;;12600701;28;20482;-35
2023/12/13 08:16:05;;;;;;;268.92;251.98;;;7.20;99.90;;;;;;12600462;28;20048;-35
2023/12/13 08:22:06;;;;;;;249.63;233.45;;;7.20;99.90;;;;;;12604627;28;20044;-36
2023/12/13 08:28:08;;;;;;;263.17;246.30;;;7.20;99.90;;;;;;12609202;28;20062;-35
2023/12/13 08:34:10;;;;;;;252.63;237.00;;;7.20;99.90;;;;;;12600683;28;20041;-36
2023/12/13 08:40:12;;;;;;;235.77;220.70;;;7.30;99.90;;;;;;12613579;28;20457;-35
2023/12/13 08:46:14;;;;;;;240.13;224.60;;;7.30;99.90;;;;;;12610256;28;20052;-36
2023/12/13 08:52:18;;;;;;;248.05;232.63;;;7.30;99.90;;;;;;12597141;28;20056;-36
2023/12/13 08:58:20;;;;;;;242.70;227.10;;;7.40;99.90;;;;;;12623529;28;20135;-36
2023/12/13 09:04:21;;;;;;;251.35;235.80;;;7.40;99.90;;;;;;12587345;28;20040;-35
2023/12/13 09:10:23;;;;;;;260.25;244.15;;;7.50;99.90;;;;;;12602421;28;20517;-35
2023/12/13 09:16:25;;;;;;;260.63;244.27;;;7.50;99.90;;;;;;12611348;28;20132;-36
2023/12/13 09:22:27;;;;;;;248.75;232.82;;;7.40;99.90;;;;;;12586534;28;20490;-36
2023/12/13 09:28:29;;;;;;;248.77;232.90;;;7.50;99.90;;;;;;12603392;28;20055;-36
2023/12/13 09:34:31;;;;;;;250.52;234.55;;;7.60;99.90;;;;;;12591051;28;20123;-36
2023/12/13 09:40:33;;;;;;;251.23;234.90;;;7.60;99.90;;;;;;12605618;28;20379;-35
2023/12/13 09:46:37;;;;;;;272.90;256.00;;;7.70;99.90;;;;;;12600080;28;20448;-36
2023/12/13 09:52:40;;;;;;;259.20;242.53;;;7.70;99.90;;;;;;12602558;28;20375;-35
2023/12/13 09:58:42;;;;;;;255.05;238.68;;;7.70;99.90;;;;;;12585268;28;20173;-35
2023/12/13 10:04:44;;;;;;;246.88;230.80;;;7.80;99.90;;;;;;12603070;28;20048;-36
2023/12/13 10:10:47;;;;;;;252.48;235.85;;;7.80;99.90;;;;;;12603540;28;20561;-35
2023/12/13 10:16:49;;;;;;;254.52;238.20;;;7.80;99.90;;;;;;12601305;28;20056;-35
2023/12/13 10:23:08;;;;;;;259.95;243.43;;;7.80;99.90;;;;;;12615116;28;20048;-36
2023/12/13 10:29:10;;;;;;;254.52;238.00;;;7.80;99.90;;;;;;12627935;28;20048;-36
2023/12/13 10:35:12;;;;;;;261.48;244.75;;;7.80;99.90;;;;;;12614432;28;20084;-35
2023/12/13 10:41:15;;;;;;;273.75;256.67;;;7.80;99.90;;;;;;12609961;28;20420;-35
2023/12/13 10:47:23;;;;;;;269.90;252.67;;;7.80;99.90;;;;;;12616718;28;20133;-36
2023/12/13 10:53:26;;;;;;;260.85;244.13;;;7.70;99.90;;;;;;12607463;28;20383;-35
2023/12/13 10:59:29;;;;;;;282.48;265.23;;;7.80;99.90;;;;;;12625183;28;20041;-36
2023/12/13 11:05:32;;;;;;;274.05;256.75;;;7.80;99.90;;;;;;12619242;28;20040;-35
2023/12/13 11:11:34;;;;;;;277.42;259.73;;;7.90;99.90;;;;;;12611475;28;20067;-35
2023/12/13 11:17:37;;;;;;;279.33;261.40;;;7.90;99.90;;;;;;12610623;28;20088;-36
2023/12/13 11:23:41;;;;;;;275.42;257.90;;;8.00;99.90;;;;;;12630570;28;20055;-35
2023/12/13 11:29:45;;;;;;;282.90;265.17;;;7.90;99.90;;;;;;12627510;28;20084;-36
2023/12/13 11:35:50;;;;;;;286.80;268.67;;;8.00;99.90;;;;;;12605347;28;20171;-36
2023/12/13 11:41:52;;;;;;;;;;;8.00;99.90;;;;;;12611516;28;20051;-35
2023/12/13 11:47:54;;;;;;;260.73;244.10;;;8.20;99.90;;;;;;12613170;28;19920;-36
2023/12/13 11:53:56;;;;;;;276.20;259.05;;;8.40;99.90;;;;;;12631703;28;20104;-36
2023/12/13 11:59:58;;;;;;;277.27;259.67;;;8.60;99.90;;;;;;12624567;28;20055;-36
2023/12/13 12:06:00;;;;;;;299.92;280.33;;;8.70;99.90;;;;;;12621953;28;20085;-36
2023/12/13 12:12:03;;;;;;;293.67;274.42;;;8.60;99.90;;;;;;12609827;28;20498;-36
2023/12/13 12:18:05;;;;;;;301.85;282.40;;;8.60;99.90;;;;;;12617948;28;20052;-35
2023/12/13 12:24:10;;;;;;;307.80;287.83;;;8.50;99.90;;;;;;12617602;28;20078;-35
2023/12/13 12:30:13;;;;;;;296.60;277.05;;;8.50;99.90;;;;;;12620758;28;20056;-36
2023/12/13 12:36:15;;;;;;;293.73;274.70;;;8.40;99.90;;;;;;12582559;28;20083;-36
2023/12/13 12:42:18;;;;;;;288.23;269.50;;;8.50;99.90;;;;;;12610072;28;20047;-36
2023/12/13 12:48:20;;;;;;;293.02;273.73;;;8.60;99.90;;;;;;12599805;28;20048;-36
2023/12/13 12:54:22;;;;;;;288.30;269.40;;;8.60;99.90;;;;;;12608681;28;20036;-36
2023/12/13 13:00:25;;;;;;;311.25;290.75;;;8.70;99.90;;;;;;12597500;28;20778;-35
2023/12/13 13:06:27;;;;;;;307.40;287.30;;;8.60;99.90;;;;;;12595381;28;20687;-36
2023/12/13 13:12:29;;;;;;;303.52;283.25;;;8.60;99.90;;;;;;12590242;28;20074;-36
2023/12/13 13:18:32;;;;;;;315.95;294.40;;;8.60;99.90;;;;;;12594910;28;20602;-35
2023/12/13 13:24:34;;;;;;;324.17;302.15;;;8.60;99.90;;;;;;12613220;28;20363;-36
2023/12/13 13:30:37;;;;;;;331.65;309.23;;;8.40;99.90;;;;;;12587528;28;20086;-35
2023/12/13 13:36:39;;;;;;;322.73;300.92;;;8.40;99.90;;;;;;12603345;28;20037;-36
2023/12/13 13:42:41;;;;;;;327.77;305.80;;;8.30;99.90;;;;;;12602236;28;20036;-35
2023/12/13 13:48:43;;;;;;;321.08;299.38;;;8.30;99.90;;;;;;12603129;28;20055;-35
2023/12/13 13:54:45;;;;;;;328.52;306.60;;;8.30;99.90;;;;;;12612030;28;20048;-36
2023/12/13 14:00:47;;;;;;;325.98;304.05;;;8.20;99.90;;;;;;12609595;28;20094;-35
2023/12/13 14:06:49;;;;;;;332.50;310.88;;;8.20;99.90;;;;;;12615262;28;20059;-35
2023/12/13 14:12:50;;;;;;;335.77;313.33;;;8.10;99.90;;;;;;12597244;28;20060;-36
2023/12/13 14:18:52;;;;;;;334.63;312.58;;;8.10;99.90;;;;;;12605904;28;20494;-35
2023/12/13 14:24:54;;;;;;;348.75;325.42;;;8.00;99.90;;;;;;12618090;28;20052;-35
2023/12/13 14:30:56;;;;;;;347.45;324.58;;;7.90;99.90;;;;;;12616872;28;20074;-35
2023/12/13 14:36:58;;;;;;;346.25;323.52;;;7.80;99.90;;;;;;12605921;28;20048;-35
2023/12/13 14:43:00;;;;;;;333.48;311.25;;;7.80;99.90;;;;;;12604151;28;20604;-35
2023/12/13 14:49:05;;;;;;;336.33;314.27;;;7.80;99.90;;;;;;12609114;28;20233;-35
2023/12/13 14:55:11;;;;;;;330.73;308.55;;;7.80;99.90;;;;;;12602509;28;20052;-36
2023/12/13 15:01:13;;;;;;;326.42;304.52;;;7.70;99.90;;;;;;12604573;28;20040;-36
2023/12/13 15:07:15;;;;;;;327.88;306.02;;;7.70;99.90;;;;;;12608781;28;20529;-35
2023/12/13 15:13:17;;;;;;;337.27;315.13;;;7.60;99.90;;;;;;12631210;28;21589;-35
2023/12/13 15:19:19;;;;;;;352.95;329.77;;;7.60;99.90;;;;;;12631789;28;20079;-35
2023/12/13 15:25:21;;;;;;;355.83;332.50;;;7.60;99.90;;;;;;12617866;28;20043;-35
2023/12/13 15:31:23;;;;;;;372.75;348.20;;;7.60;99.90;;;;;;12613459;28;20051;-35
2023/12/13 15:37:25;;;;;;;342.77;320.60;;;7.50;99.90;;;;;;12621112;28;20048;-35
2023/12/13 15:43:27;;;;;;;331.50;309.92;;;7.50;99.90;;;;;;12617601;28;20044;-36
2023/12/13 15:49:30;;;;;;;338.63;316.90;;;7.50;99.90;;;;;;12628440;28;20188;-35
2023/12/13 15:55:32;;;;;;;329.60;308.35;;;7.40;99.90;;;;;;12639379;28;20044;-35
2023/12/13 16:01:34;;;;;;;326.55;305.48;;;7.40;99.90;;;;;;12617744;28;20043;-35
2023/12/13 16:07:36;;;;;;;325.00;303.73;;;7.40;99.90;;;;;;12611248;28;20135;-36
2023/12/13 16:13:38;;;;;;;314.50;293.88;;;7.40;99.90;;;;;;12603796;28;20064;-36
2023/12/13 16:19:40;;;;;;;313.52;293.13;;;7.30;99.90;;;;;;12618199;28;20048;-36
2023/12/13 16:25:42;;;;;;;311.00;290.75;;;7.30;99.90;;;;;;12591090;28;20185;-35
2023/12/13 16:31:44;;;;;;;315.33;294.65;;;7.30;99.90;;;;;;12610183;28;20059;-36
2023/12/13 16:37:46;;;;;;;304.90;285.10;;;7.30;99.90;;;;;;12604585;28;20044;-36
2023/12/13 16:43:47;;;;;;;304.17;283.98;;;7.30;99.90;;;;;;12633458;28;20058;-35
2023/12/13 16:49:49;;;;;;;318.42;297.17;;;7.30;99.90;;;;;;12615640;28;20091;-36
2023/12/13 16:55:51;;;;;;;316.75;296.02;;;7.30;99.90;;;;;;12632968;28;20135;-35
2023/12/13 17:01:53;;;;;;;317.35;296.73;;;7.30;99.90;;;;;;12603772;28;20045;-35
2023/12/13 17:07:55;;;;;;;313.67;292.98;;;7.20;99.90;;;;;;12601116;28;20048;-36
2023/12/13 17:13:57;;;;;;;315.13;294.55;;;7.20;99.90;;;;;;12610677;28;20056;-36
2023/12/13 17:19:59;;;;;;;315.08;294.65;;;7.20;99.90;;;;;;12602984;28;20067;-35
2023/12/13 17:26:01;;;;;;;313.90;293.52;;;7.20;99.90;;;;;;12612422;28;20136;-36
2023/12/13 17:32:04;;;;;;;304.50;284.55;;;7.20;99.90;;;;;;12613349;28;20051;-36
2023/12/13 17:38:06;;;;;;;329.95;308.80;;;7.20;99.90;;;;;;12593552;28;20045;-35
2023/12/13 17:44:08;;;;;;;362.77;336.88;;;7.20;99.90;;;;;;12605920;28;20268;-36
2023/12/13 17:50:10;;;;;;;447.27;418.95;;;7.20;99.90;;;;;;12624464;28;20082;-35
2023/12/13 17:56:18;;;;;;;438.67;410.33;;;7.30;99.90;;;;;;12609749;28;20044;-35
2023/12/13 18:02:20;;;;;;;448.27;419.80;;;7.20;99.90;;;;;;12602637;28;20060;-36
2023/12/13 18:08:22;;;;;;;472.73;442.58;;;7.20;99.90;;;;;;12624860;28;20048;-35
2023/12/13 18:14:24;;;;;;;480.10;450.02;;;7.00;99.90;;;;;;12586930;28;20139;-35
2023/12/13 18:20:26;;;;;;;487.33;456.75;;;7.00;99.90;;;;;;12598995;28;20094;-36
2023/12/13 18:26:28;;;;;;;489.67;458.27;;;7.00;99.90;;;;;;12632713;28;20546;-35
2023/12/13 18:32:30;;;;;;;488.75;458.05;;;6.90;99.90;;;;;;12619574;28;20043;-35
2023/12/13 18:38:32;;;;;;;485.15;454.92;;;6.80;99.90;;;;;;12624771;28;20045;-35
2023/12/13 18:44:34;;;;;;;471.85;442.52;;;6.70;99.90;;;;;;12630719;28;20044;-35
2023/12/13 18:50:36;;;;;;;462.05;433.23;;;6.60;99.90;;;;;;12623463;28;20051;-35
2023/12/13 18:56:38;;;;;;;440.30;412.90;;;6.60;99.90;;;;;;12643054;28;20395;-35
2023/12/13 19:02:41;;;;;;;420.27;394.02;;;6.60;99.90;;;;;;12626239;28;20055;-35
2023/12/13 19:08:43;;;;;;;413.92;387.85;;;6.50;99.90;;;;;;12602078;28;20052;-35
2023/12/13 19:14:45;;;;;;;406.15;380.75;;;6.40;99.90;;;;;;12606093;28;20469;-35
2023/12/13 19:20:47;;;;;;;416.23;390.05;;;6.50;99.90;;;;;;12612635;28;20052;-35
2023/12/13 19:26:49;;;;;;;418.00;391.85;;;6.40;99.90;;;;;;12621714;28;20106;-35
2023/12/13 19:32:51;;;;;;;403.52;377.75;;;6.30;99.90;;;;;;12620038;28;20525;-36
2023/12/13 19:38:52;;;;;;;406.40;380.73;;;6.20;99.90;;;;;;12632410;28;20041;-35
2023/12/13 19:44:54;;;;;;;400.98;375.83;;;6.20;99.90;;;;;;12619295;28;20056;-35
2023/12/13 19:50:56;;;;;;;388.50;363.90;;;6.10;99.90;;;;;;12623560;28;20055;-35
2023/12/13 19:56:59;;;;;;;373.40;349.98;;;6.20;99.90;;;;;;12629829;28;21615;-35
2023/12/13 20:03:01;;;;;;;379.23;355.55;;;6.20;99.90;;;;;;12606168;28;20052;-36
2023/12/13 20:09:03;;;;;;;362.00;338.92;;;6.20;99.90;;;;;;12625264;28;20045;-35
2023/12/13 20:15:08;;;;;;;350.45;328.08;;;6.20;99.90;;;;;;12617309;28;20052;-35
2023/12/13 20:21:10;;;;;;;351.13;328.73;;;6.20;99.90;;;;;;12604754;28;20448;-35
2023/12/13 20:27:13;;;;;;;375.08;351.40;;;6.10;99.90;;;;;;12614254;28;20106;-36
2023/12/13 20:33:14;;;;;;;382.48;358.13;;;6.00;99.90;;;;;;12623981;28;20067;-36
2023/12/13 20:39:16;;;;;;;395.40;370.55;;;6.00;99.90;;;;;;12603212;28;20559;-35
2023/12/13 20:45:20;;;;;;;397.35;372.67;;;5.90;99.90;;;;;;12606798;28;20611;-35
2023/12/13 20:51:22;;;;;;;385.88;361.83;;;5.90;99.90;;;;;;12605757;28;20053;-36
2023/12/13 20:57:25;;;;;;;395.95;370.98;;;5.90;99.90;;;;;;12629116;28;20085;-35
2023/12/13 21:03:27;;;;;;;400.92;375.67;;;5.90;99.90;;;;;;12600165;28;20124;-35
2023/12/13 21:09:29;;;;;;;413.88;387.15;;;5.90;99.90;;;;;;12608109;28;20086;-35
2023/12/13 21:15:32;;;;;;;413.80;387.30;;;5.80;99.90;;;;;;12619828;28;20379;-36
2023/12/13 21:21:34;;;;;;;393.92;368.52;;;5.70;99.90;;;;;;12609665;28;20230;-35
2023/12/13 21:27:37;;;;;;;413.30;387.42;;;5.80;99.90;;;;;;12605175;28;20047;-36
2023/12/13 21:33:41;;;;;;;;;;;5.90;99.90;;;;;;12606863;28;20087;-36
2023/12/13 21:39:43;;;;;;;420.45;393.95;;;5.70;99.90;;;;;;12611412;28;19939;-36
2023/12/13 21:45:46;;;;;;;429.00;401.80;;;5.60;99.90;;;;;;12608494;28;20049;-35
2023/12/13 21:51:48;;;;;;;411.35;385.17;;;5.60;99.90;;;;;;12605615;28;20044;-35
2023/12/13 21:57:49;;;;;;;414.05;387.50;;;5.60;99.90;;;;;;12606688;28;20090;-35
2023/12/13 22:03:51;;;;;;;450.85;421.98;;;5.60;99.90;;;;;;12597114;28;20074;-35
2023/12/13 22:09:54;;;;;;;433.80;406.45;;;5.50;99.90;;;;;;12624007;28;20047;-35
2023/12/13 22:15:56;;;;;;;413.75;387.42;;;5.50;99.90;;;;;;12631736;28;20045;-36
2023/12/13 22:21:59;;;;;;;414.23;387.88;;;5.60;99.90;;;;;;12628391;28;20551;-35
2023/12/13 22:28:03;;;;;;;407.42;381.80;;;5.60;99.90;;;;;;12618663;28;20093;-35
2023/12/13 22:34:07;;;;;;;411.90;385.63;;;5.60;99.90;;;;;;12617013;28;20060;-35
2023/12/13 22:40:09;;;;;;;437.73;410.30;;;5.40;99.90;;;;;;12630193;28;20478;-35
2023/12/13 22:46:12;;;;;;;443.98;416.08;;;5.40;99.90;;;;;;12617891;28;20079;-35
2023/12/13 22:52:14;;;;;;;431.20;404.30;;;5.20;99.90;;;;;;12625889;28;20047;-36
2023/12/13 22:58:24;;;;;;;421.70;395.17;;;5.40;99.90;;;;;;12615864;28;20048;-35
2023/12/13 23:04:26;;;;;;;424.15;397.85;;;5.40;99.90;;;;;;12620314;28;20051;-35
2023/12/13 23:10:28;;;;;;;429.95;403.25;;;5.30;99.90;;;;;;12637716;28;20387;-35
2023/12/13 23:16:30;;;;;;;432.73;405.88;;;5.20;99.90;;;;;;12639446;28;20052;-36
2023/12/13 23:22:38;;;;;;;399.75;374.88;;;5.20;99.90;;;;;;12610640;28;20406;-36
2023/12/13 23:28:41;;;;;;;403.77;378.77;;;5.40;99.90;;;;;;12599374;28;20059;-35
2023/12/13 23:34:42;;;;;;;418.02;391.80;;;5.20;99.90;;;;;;12600782;28;20564;-35
2023/12/13 23:40:44;;;;;;;401.90;377.00;;;5.10;99.90;;;;;;12617140;28;20174;-35
2023/12/13 23:46:47;;;;;;;400.00;375.27;;;5.20;99.90;;;;;;12607159;28;20049;-35
2023/12/13 23:52:48;;;;;;;406.90;381.65;;;5.10;99.90;;;;;;12623930;28;20173;-35
2023/12/13 23:58:51;;;;;;;405.25;380.05;;;5.10;99.90;;;;;;12626103;28;20044;-35
